createdAt,value
2022-08-05T00:01:36.412Z,100.00
2022-08-05T00:04:18.452Z,100.00
2022-08-05T00:06:51.721Z,100.00
2022-08-05T00:09:21.518Z,100.00
2022-08-05T00:11:56.159Z,100.00
2022-08-05T00:14:31.519Z,100.00
2022-08-05T00:17:01.657Z,100.00
2022-08-05T00:19:33.337Z,100.00
2022-08-05T00:22:03.379Z,100.00
2022-08-05T00:24:33.809Z,100.00
2022-08-05T00:27:04.824Z,100.00
2022-08-05T00:29:41.322Z,100.00
2022-08-05T00:32:15.015Z,100.00
2022-08-05T00:35:05.689Z,100.00
2022-08-05T00:37:52.580Z,100.00
2022-08-05T00:40:26.886Z,100.00
2022-08-05T00:43:00.352Z,100.00
2022-08-05T00:45:42.921Z,100.00
2022-08-05T00:48:15.041Z,100.00
2022-08-05T00:50:46.906Z,100.00
2022-08-05T00:54:00.765Z,100.00
2022-08-05T00:56:08.210Z,100.00
2022-08-05T00:58:37.509Z,100.00
2022-08-05T01:01:09.620Z,100.00
2022-08-05T01:03:39.143Z,100.00
2022-08-05T01:06:14.134Z,100.00
2022-08-05T01:08:44.991Z,100.00
2022-08-05T01:11:33.661Z,100.00
2022-08-05T01:14:15.406Z,100.00
2022-08-05T01:16:53.606Z,100.00
2022-08-05T01:19:56.576Z,100.00
2022-08-05T01:22:40.861Z,100.00
2022-08-05T01:25:53.204Z,100.00
2022-08-05T01:28:34.275Z,100.00
2022-08-05T01:31:11.971Z,100.00
2022-08-05T01:33:58.084Z,100.00
2022-08-05T01:36:35.306Z,100.00
2022-08-05T01:39:13.512Z,100.00
2022-08-05T01:41:44.813Z,100.00
2022-08-05T01:44:16.868Z,100.00
2022-08-05T01:46:46.939Z,100.00
2022-08-05T01:49:23.996Z,100.00
2022-08-05T01:51:59.950Z,100.00
2022-08-05T01:54:46.057Z,100.00
2022-08-05T01:58:11.649Z,100.00
2022-08-05T02:00:16.073Z,100.00
2022-08-05T02:02:54.517Z,100.00
2022-08-05T02:05:28.854Z,100.00
2022-08-05T02:07:59.985Z,100.00
2022-08-05T02:10:37.774Z,100.00
2022-08-05T02:13:16.533Z,100.00
2022-08-05T02:15:52.978Z,100.00
2022-08-05T02:18:34.210Z,100.00
2022-08-05T02:21:15.570Z,100.00
2022-08-05T02:23:49.940Z,100.00
2022-08-05T02:26:26.588Z,100.00
2022-08-05T02:28:58.525Z,100.00
2022-08-05T02:31:34.808Z,100.00
2022-08-05T02:34:09.309Z,100.00
2022-08-05T02:36:45.186Z,100.00
2022-08-05T02:39:21.444Z,100.00
2022-08-05T02:42:00.874Z,100.00
2022-08-05T02:44:33.161Z,100.00
2022-08-05T02:47:09.629Z,100.00
2022-08-05T02:49:42.887Z,100.00
2022-08-05T02:52:25.957Z,100.00
2022-08-05T02:55:05.618Z,100.00
2022-08-05T02:58:12.235Z,100.00
2022-08-05T03:00:31.138Z,100.00
2022-08-05T03:03:03.393Z,100.00
2022-08-05T03:06:53.943Z,100.00
2022-08-05T03:08:32.182Z,100.00
2022-08-05T03:11:56.273Z,100.00
2022-08-05T03:14:03.169Z,100.00
2022-08-05T03:16:32.680Z,100.00
2022-08-05T03:19:12.928Z,100.00
2022-08-05T03:21:50.078Z,100.00
2022-08-05T03:24:27.546Z,100.00
2022-08-05T03:27:00.610Z,100.00
2022-08-05T03:29:59.583Z,100.00
2022-08-05T03:32:20.558Z,100.00
2022-08-05T03:34:51.687Z,100.00
2022-08-05T03:37:22.646Z,100.00
2022-08-05T03:40:01.737Z,100.00
2022-08-05T03:42:41.563Z,100.00
2022-08-05T03:45:22.416Z,100.00
2022-08-05T03:47:57.171Z,100.00
2022-08-05T03:50:36.930Z,100.00
2022-08-05T03:55:53.869Z,100.00
2022-08-05T03:56:27.785Z,100.00
2022-08-05T03:59:05.069Z,100.00
2022-08-05T04:01:40.764Z,100.00
2022-08-05T04:04:11.655Z,100.00
2022-08-05T04:06:51.176Z,100.00
2022-08-05T04:09:25.881Z,100.00
2022-08-05T04:11:57.099Z,100.00
2022-08-05T04:14:30.191Z,100.00
2022-08-05T04:17:02.911Z,100.00
2022-08-05T04:19:32.379Z,100.00
2022-08-05T04:22:09.917Z,100.00
2022-08-05T04:24:43.814Z,100.00
2022-08-05T04:27:15.341Z,100.00
2022-08-05T04:29:44.546Z,100.00
2022-08-05T04:32:14.362Z,100.00
2022-08-05T04:34:49.137Z,100.00
2022-08-05T04:38:01.104Z,100.00
2022-08-05T04:40:19.534Z,100.00
2022-08-05T04:42:48.847Z,100.00
2022-08-05T04:45:22.807Z,100.00
2022-08-05T04:47:52.099Z,100.00
2022-08-05T04:50:34.453Z,100.00
2022-08-05T04:53:08.901Z,100.00
2022-08-05T04:56:15.147Z,100.00
2022-08-05T04:58:27.515Z,100.00
2022-08-05T05:00:56.575Z,100.00
2022-08-05T05:03:25.683Z,100.00
2022-08-05T05:06:38.901Z,100.00
2022-08-05T05:08:52.106Z,100.00
2022-08-05T05:11:22.407Z,100.00
2022-08-05T05:14:16.082Z,100.00
2022-08-05T05:16:45.573Z,100.00
2022-08-05T05:19:26.537Z,100.00
2022-08-05T05:21:56.821Z,100.00
2022-08-05T05:24:56.190Z,100.00
2022-08-05T05:27:23.467Z,100.00
2022-08-05T05:30:04.380Z,100.00
2022-08-05T05:32:34.581Z,100.00
2022-08-05T05:35:04.760Z,100.00
2022-08-05T05:37:45.503Z,100.00
2022-08-05T05:40:26.249Z,100.00
2022-08-05T05:42:57.860Z,100.00
2022-08-05T05:45:27.186Z,100.00
2022-08-05T05:48:05.481Z,100.00
2022-08-05T05:50:44.008Z,100.00
2022-08-05T05:53:21.473Z,100.00
2022-08-05T05:56:01.374Z,100.00
2022-08-05T05:58:32.556Z,100.00
2022-08-05T06:01:12.057Z,100.00
2022-08-05T06:04:00.872Z,100.00
2022-08-05T06:06:33.216Z,100.00
2022-08-05T06:09:05.565Z,100.00
2022-08-05T06:11:39.387Z,100.00
2022-08-05T06:14:08.782Z,100.00
2022-08-05T06:16:37.887Z,100.00
2022-08-05T06:19:07.984Z,100.00
2022-08-05T06:21:42.318Z,100.00
2022-08-05T06:24:25.746Z,100.00
2022-08-05T06:26:57.840Z,100.00
2022-08-05T06:29:48.914Z,100.00
2022-08-05T06:32:25.411Z,100.00
2022-08-05T06:34:57.119Z,100.00
2022-08-05T06:37:56.014Z,100.00
2022-08-05T06:40:18.332Z,99.50
2022-08-05T06:42:52.890Z,99.14
2022-08-05T06:45:45.034Z,90.25
2022-08-05T06:48:55.451Z,93.36
2022-08-05T06:51:01.558Z,90.62
2022-08-05T06:53:39.389Z,88.33
2022-08-05T06:56:26.072Z,85.30
2022-08-05T06:58:57.736Z,83.89
2022-08-05T07:01:32.210Z,83.47
2022-08-05T07:04:03.113Z,81.39
2022-08-05T07:06:32.624Z,80.58
2022-08-05T07:09:03.871Z,79.93
2022-08-05T07:11:36.878Z,78.29
2022-08-05T07:14:29.406Z,78.85
2022-08-05T07:18:00.619Z,80.68
2022-08-05T07:22:43.262Z,81.10
2022-08-05T07:25:53.829Z,82.44
2022-08-05T07:28:11.452Z,79.91
2022-08-05T07:30:50.286Z,82.43
2022-08-05T07:33:35.239Z,81.86
2022-08-05T07:36:20.022Z,80.30
2022-08-05T07:38:55.042Z,80.49
2022-08-05T07:42:13.533Z,82.83
2022-08-05T07:44:19.049Z,81.87
2022-08-05T07:46:50.669Z,81.73
2022-08-05T07:49:20.959Z,81.94
2022-08-05T07:51:56.573Z,79.04
2022-08-05T07:54:38.555Z,79.02
2022-08-05T07:57:57.499Z,80.55
2022-08-05T08:01:30.017Z,77.63
2022-08-05T08:04:11.205Z,77.93
2022-08-05T08:14:56.398Z,77.32
2022-08-05T08:17:28.540Z,73.99
2022-08-05T08:20:21.108Z,70.95
2022-08-05T08:22:55.848Z,69.94
2022-08-05T08:25:59.377Z,70.60
2022-08-05T08:28:35.513Z,68.92
2022-08-05T08:31:08.377Z,71.79
2022-08-05T08:33:38.561Z,71.05
2022-08-05T08:36:38.898Z,70.25
2022-08-05T08:39:01.648Z,69.84
2022-08-05T08:41:51.989Z,67.93
2022-08-05T08:45:19.056Z,67.15
2022-08-05T08:48:05.597Z,65.34
2022-08-05T08:50:52.003Z,63.41
2022-08-05T08:53:18.208Z,64.29
2022-08-05T08:56:03.141Z,64.97
2022-08-05T08:58:36.991Z,63.52
2022-08-05T09:01:16.469Z,64.83
2022-08-05T09:03:55.221Z,65.47
2022-08-05T09:06:30.025Z,62.65
2022-08-05T09:09:03.073Z,61.53
2022-08-05T09:11:50.955Z,63.23
2022-08-05T09:14:57.983Z,61.97
2022-08-05T09:17:40.188Z,63.19
2022-08-05T09:20:06.123Z,64.46
2022-08-05T09:23:18.530Z,61.93
2022-08-05T09:26:01.234Z,60.19
2022-08-05T09:28:37.562Z,62.66
2022-08-05T09:31:22.230Z,58.46
2022-08-05T09:34:01.741Z,55.58
2022-08-05T09:36:54.430Z,59.15
2022-08-05T09:39:39.178Z,58.38
2022-08-05T09:42:24.057Z,56.40
2022-08-05T09:45:17.412Z,57.53
2022-08-05T09:47:56.799Z,57.68
2022-08-05T09:50:44.645Z,58.35
2022-08-05T09:53:22.792Z,54.63
2022-08-05T09:56:03.930Z,56.87
2022-08-05T09:58:35.760Z,56.83
2022-08-05T10:01:31.756Z,55.50
2022-08-05T10:04:10.600Z,53.01
2022-08-05T10:06:49.733Z,52.15
2022-08-05T10:09:30.236Z,52.68
2022-08-05T10:12:18.907Z,51.35
2022-08-05T10:15:20.264Z,48.82
2022-08-05T10:18:13.906Z,53.25
2022-08-05T10:20:48.828Z,53.19
2022-08-05T10:23:34.141Z,53.02
2022-08-05T10:26:14.189Z,50.14
2022-08-05T10:28:46.774Z,51.12
2022-08-05T10:32:52.051Z,50.28
2022-08-05T10:34:11.071Z,53.46
2022-08-05T10:36:42.303Z,50.67
2022-08-05T10:39:24.139Z,51.16
2022-08-05T10:42:01.393Z,50.17
2022-08-05T10:44:32.856Z,49.25
2022-08-05T10:47:26.426Z,48.74
2022-08-05T10:50:32.495Z,49.95
2022-08-05T10:53:02.500Z,50.78
2022-08-05T10:55:38.747Z,49.10
2022-08-05T10:58:23.544Z,48.06
2022-08-05T11:01:13.258Z,50.44
2022-08-05T11:04:12.115Z,48.65
2022-08-05T11:07:11.618Z,46.20
2022-08-05T11:09:47.169Z,43.08
2022-08-05T11:12:54.506Z,41.62
2022-08-05T11:16:01.193Z,39.82
2022-08-05T11:18:30.020Z,37.18
2022-08-05T11:21:11.336Z,38.56
2022-08-05T11:24:04.140Z,38.37
2022-08-05T11:26:49.582Z,36.84
2022-08-05T11:29:41.093Z,34.36
2022-08-05T11:32:28.771Z,33.42
2022-08-05T11:34:58.712Z,33.80
2022-08-05T11:38:29.526Z,32.19
2022-08-05T11:41:34.851Z,33.02
2022-08-05T11:44:06.328Z,33.83
2022-08-05T11:47:09.897Z,31.54
2022-08-05T11:49:29.443Z,30.44
2022-08-05T11:52:08.839Z,32.09
2022-08-05T11:54:48.473Z,30.06
2022-08-05T11:58:08.260Z,29.64
2022-08-05T12:00:29.134Z,30.40
2022-08-05T12:03:29.132Z,29.71
2022-08-05T12:06:05.859Z,33.51
2022-08-05T12:08:51.245Z,36.37
2022-08-05T12:11:40.402Z,35.92
2022-08-05T12:14:11.648Z,37.29
2022-08-05T12:16:45.609Z,39.36
2022-08-05T12:20:25.468Z,36.75
2022-08-05T12:22:20.165Z,36.32
2022-08-05T12:24:57.482Z,38.38
2022-08-05T12:27:32.770Z,37.16
2022-08-05T12:30:05.659Z,33.23
2022-08-05T12:32:35.454Z,31.77
2022-08-05T12:35:10.795Z,31.61
2022-08-05T12:37:40.565Z,30.50
2022-08-05T12:40:20.777Z,31.38
2022-08-05T12:42:59.508Z,30.54
2022-08-05T12:45:42.697Z,32.71
2022-08-05T12:48:32.699Z,28.79
2022-08-05T12:52:09.913Z,27.22
2022-08-05T12:54:04.924Z,25.17
2022-08-05T12:56:51.870Z,23.76
2022-08-05T12:59:46.713Z,24.28
2022-08-05T13:02:17.472Z,25.13
2022-08-05T13:04:52.502Z,23.35
2022-08-05T13:10:19.755Z,22.47
2022-08-05T13:12:51.138Z,21.75
2022-08-05T13:15:42.252Z,24.92
2022-08-05T13:18:20.627Z,26.80
2022-08-05T13:20:50.458Z,28.48
2022-08-05T13:23:22.529Z,27.66
2022-08-05T13:25:59.270Z,27.90
2022-08-05T13:28:32.380Z,27.98
2022-08-05T13:31:13.977Z,26.30
2022-08-05T13:34:22.109Z,26.35
2022-08-05T13:36:37.277Z,26.10
2022-08-05T13:40:12.793Z,25.40
2022-08-05T13:41:58.485Z,27.95
2022-08-05T13:44:28.480Z,29.11
2022-08-05T13:47:04.943Z,26.89
2022-08-05T13:49:38.547Z,23.52
2022-08-05T13:52:17.935Z,20.87
2022-08-05T13:54:53.309Z,21.40
2022-08-05T13:57:24.261Z,19.41
2022-08-05T13:59:59.296Z,19.03
2022-08-05T14:02:31.396Z,18.01
2022-08-05T14:05:15.145Z,18.31
2022-08-05T14:08:00.498Z,18.06
2022-08-05T14:10:35.509Z,18.27
2022-08-05T14:13:08.093Z,16.49
2022-08-05T14:16:07.267Z,15.48
2022-08-05T14:18:28.372Z,16.71
2022-08-05T14:20:58.023Z,15.53
2022-08-05T14:23:36.705Z,16.06
2022-08-05T14:26:07.050Z,16.51
2022-08-05T14:28:36.391Z,15.42
2022-08-05T14:31:54.298Z,14.57
2022-08-05T14:34:13.932Z,14.44
2022-08-05T14:36:43.166Z,14.42
2022-08-05T14:39:23.299Z,15.05
2022-08-05T14:42:19.466Z,14.81
2022-08-05T14:44:43.302Z,15.28
2022-08-05T14:47:14.231Z,15.41
2022-08-05T14:49:59.723Z,15.01
2022-08-05T14:52:51.880Z,15.20
2022-08-05T14:55:21.159Z,14.54
2022-08-05T14:57:56.204Z,14.93
2022-08-05T15:00:28.388Z,15.25
2022-08-05T15:02:59.119Z,14.16
2022-08-05T15:06:08.380Z,13.95
2022-08-05T15:08:57.573Z,14.84
2022-08-05T15:11:11.383Z,14.48
2022-08-05T15:13:45.800Z,14.38
2022-08-05T15:16:16.437Z,13.88
2022-08-05T15:18:47.253Z,15.47
2022-08-05T15:21:21.154Z,13.88
2022-08-05T15:23:51.129Z,14.63
2022-08-05T15:26:32.100Z,16.31
2022-08-05T15:29:02.442Z,15.79
2022-08-05T15:31:34.893Z,17.27
2022-08-05T15:34:31.607Z,20.52
2022-08-05T15:36:55.520Z,25.01
2022-08-05T15:40:58.218Z,27.70
2022-08-05T15:42:54.835Z,30.59
2022-08-05T15:45:04.000Z,32.30
2022-08-05T15:47:35.920Z,35.00
2022-08-05T15:50:06.539Z,37.72
2022-08-05T15:52:53.738Z,38.02
2022-08-05T15:56:02.884Z,36.63
2022-08-05T15:58:16.463Z,36.98
2022-08-05T16:00:51.001Z,41.72
2022-08-05T16:03:34.043Z,41.98
2022-08-05T16:06:03.428Z,43.84
2022-08-05T16:08:36.532Z,43.10
2022-08-05T16:11:08.002Z,41.27
2022-08-05T16:13:38.826Z,43.60
2022-08-05T16:16:10.647Z,43.49
2022-08-05T16:18:52.443Z,44.85
2022-08-05T16:21:59.347Z,45.20
2022-08-05T16:24:41.394Z,46.62
2022-08-05T16:27:07.562Z,49.28
2022-08-05T16:29:37.884Z,51.01
2022-08-05T16:32:09.967Z,50.27
2022-08-05T16:34:42.582Z,49.36
2022-08-05T16:38:03.553Z,54.82
2022-08-05T16:40:05.100Z,55.19
2022-08-05T16:42:37.154Z,59.66
2022-08-05T16:46:05.334Z,59.92
2022-08-05T16:48:02.964Z,63.23
2022-08-05T16:50:33.153Z,66.45
2022-08-05T16:53:12.431Z,66.76
2022-08-05T16:55:53.936Z,65.50
2022-08-05T16:58:26.280Z,64.80
2022-08-05T17:00:55.764Z,66.33
2022-08-05T17:03:25.346Z,67.95
2022-08-05T17:05:59.430Z,68.93
2022-08-05T17:08:35.757Z,69.13
2022-08-05T17:11:23.972Z,69.66
2022-08-05T17:14:05.404Z,69.82
2022-08-05T17:16:38.936Z,69.89
2022-08-05T17:19:13.605Z,72.74
2022-08-05T17:21:43.343Z,72.91
2022-08-05T17:24:35.162Z,76.00
2022-08-05T17:27:16.214Z,77.08
2022-08-05T17:29:48.920Z,76.47
2022-08-05T17:32:21.534Z,77.25
2022-08-05T17:34:58.177Z,80.25
2022-08-05T17:37:41.635Z,78.73
2022-08-05T17:40:18.803Z,78.67
2022-08-05T17:42:53.838Z,77.90
2022-08-05T17:45:37.962Z,77.61
2022-08-05T17:48:09.042Z,77.78
2022-08-05T17:50:40.870Z,78.05
2022-08-05T17:53:11.399Z,79.99
2022-08-05T17:55:42.785Z,82.98
2022-08-05T17:58:16.147Z,85.96
2022-08-05T18:00:51.056Z,87.64
2022-08-05T18:03:59.231Z,90.16
2022-08-05T18:06:14.935Z,90.65
2022-08-05T18:08:52.117Z,93.04
2022-08-05T18:11:32.857Z,90.84
2022-08-05T18:14:07.441Z,90.41
2022-08-05T18:16:46.945Z,90.79
2022-08-05T18:19:23.287Z,90.75
2022-08-05T18:22:08.611Z,89.92
2022-08-05T18:24:43.190Z,90.85
2022-08-05T18:27:18.542Z,92.23
2022-08-05T18:29:54.344Z,93.10
2022-08-05T18:32:28.123Z,92.52
2022-08-05T18:34:59.087Z,93.69
2022-08-05T18:37:33.633Z,94.25
2022-08-05T18:40:33.595Z,97.03
2022-08-05T18:42:55.303Z,97.72
2022-08-05T18:45:41.345Z,99.54
2022-08-05T18:48:30.102Z,100.00
2022-08-05T18:52:04.849Z,100.00
2022-08-05T18:54:09.082Z,100.00
2022-08-05T18:56:38.514Z,99.99
2022-08-05T18:59:43.652Z,100.00
2022-08-05T19:01:58.920Z,99.41
2022-08-05T19:04:30.265Z,99.44
2022-08-05T19:06:59.422Z,100.00
2022-08-05T19:09:28.681Z,100.00
2022-08-05T19:12:11.423Z,100.00
2022-08-05T19:15:00.859Z,100.00
2022-08-05T19:17:59.475Z,100.00
2022-08-05T19:20:21.559Z,100.00
2022-08-05T19:22:54.306Z,100.00
2022-08-05T19:25:30.680Z,100.00
2022-08-05T19:28:08.443Z,100.00
2022-08-05T19:30:37.804Z,100.00
2022-08-05T19:33:12.853Z,100.00
2022-08-05T19:35:56.724Z,100.00
2022-08-05T19:38:26.843Z,100.00
2022-08-05T19:40:56.062Z,100.00
2022-08-05T19:44:06.490Z,100.00
2022-08-05T19:46:16.886Z,100.00
2022-08-05T19:49:03.256Z,100.00
2022-08-05T19:52:04.615Z,100.00
2022-08-05T19:54:29.430Z,100.00
2022-08-05T19:57:02.102Z,100.00
2022-08-05T20:00:01.711Z,100.00
2022-08-05T20:02:22.031Z,100.00
2022-08-05T20:04:54.858Z,100.00
2022-08-05T20:07:46.567Z,100.00
2022-08-05T20:10:14.314Z,100.00
2022-08-05T20:12:47.676Z,100.00
2022-08-05T20:15:52.050Z,100.00
2022-08-05T20:18:33.332Z,100.00
2022-08-05T20:21:07.380Z,100.00
2022-08-05T20:23:51.301Z,100.00
2022-08-05T20:26:25.315Z,100.00
2022-08-05T20:28:57.665Z,100.00
2022-08-05T20:31:42.981Z,100.00
2022-08-05T20:34:22.974Z,100.00
2022-08-05T20:36:54.443Z,100.00
2022-08-05T20:39:24.765Z,100.00
2022-08-05T20:42:05.389Z,100.00
2022-08-05T20:44:38.032Z,100.00
2022-08-05T20:47:08.297Z,100.00
2022-08-05T20:49:39.918Z,100.00
2022-08-05T20:52:12.395Z,100.00
2022-08-05T20:54:59.897Z,100.00
2022-08-05T20:57:43.788Z,100.00
2022-08-05T21:00:40.523Z,100.00
2022-08-05T21:03:07.957Z,100.00
2022-08-05T21:05:54.109Z,100.00
2022-08-05T21:08:42.510Z,100.00
2022-08-05T21:11:51.650Z,100.00
2022-08-05T21:14:03.447Z,100.00
2022-08-05T21:16:37.569Z,100.00
2022-08-05T21:19:06.712Z,100.00
2022-08-05T21:21:44.169Z,100.00
2022-08-05T21:24:21.078Z,100.00
2022-08-05T21:26:56.069Z,100.00
2022-08-05T21:29:32.056Z,100.00
2022-08-05T21:32:03.446Z,100.00
2022-08-05T21:34:32.869Z,100.00
2022-08-05T21:37:02.460Z,100.00
2022-08-05T21:39:34.750Z,100.00
2022-08-05T21:42:43.619Z,100.00
2022-08-05T21:45:00.228Z,100.00
2022-08-05T21:47:56.874Z,100.00
2022-08-05T21:50:19.143Z,100.00
2022-08-05T21:52:51.415Z,100.00
2022-08-05T21:56:01.496Z,100.00
2022-08-05T21:58:11.685Z,100.00
2022-08-05T22:00:41.155Z,100.00
2022-08-05T22:03:48.905Z,100.00
2022-08-05T22:06:09.476Z,100.00
2022-08-05T22:08:42.464Z,100.00
2022-08-05T22:11:15.495Z,100.00
2022-08-05T22:14:34.264Z,100.00
2022-08-05T22:16:41.779Z,100.00
2022-08-05T22:20:02.225Z,100.00
2022-08-05T22:22:10.804Z,100.00
2022-08-05T22:24:58.958Z,100.00
2022-08-05T22:28:08.572Z,100.00
2022-08-05T22:30:35.811Z,100.00
2022-08-05T22:33:15.635Z,100.00
2022-08-05T22:35:48.814Z,100.00
2022-08-05T22:38:19.756Z,100.00
2022-08-05T22:40:54.948Z,100.00
2022-08-05T22:43:36.688Z,100.00
2022-08-05T22:46:13.140Z,100.00
2022-08-05T22:48:52.680Z,100.00
2022-08-05T22:51:22.715Z,100.00
2022-08-05T22:53:54.931Z,100.00
2022-08-05T22:56:29.787Z,100.00
2022-08-05T22:59:02.868Z,100.00
2022-08-05T23:02:04.337Z,100.00
2022-08-05T23:04:22.305Z,100.00
2022-08-05T23:06:51.497Z,100.00
2022-08-05T23:09:27.795Z,100.00
2022-08-05T23:12:11.580Z,100.00
2022-08-05T23:14:43.675Z,100.00
2022-08-05T23:17:34.917Z,100.00
2022-08-05T23:20:17.849Z,100.00
2022-08-05T23:22:48.378Z,100.00
2022-08-05T23:25:52.859Z,100.00
2022-08-05T23:28:08.437Z,100.00
2022-08-05T23:30:39.948Z,100.00
2022-08-05T23:33:16.088Z,100.00
2022-08-05T23:35:52.206Z,100.00
2022-08-05T23:38:26.829Z,100.00
2022-08-05T23:40:56.121Z,100.00
2022-08-05T23:43:37.267Z,100.00
2022-08-05T23:46:20.786Z,100.00
2022-08-05T23:49:01.171Z,100.00
2022-08-05T23:51:46.473Z,100.00
2022-08-05T23:54:25.893Z,100.00
2022-08-05T23:56:58.237Z,100.00
2022-08-05T23:59:37.604Z,100.00
